Time;durP1;ratioP1;P1;durP2;ratioP2;P2;SDS_P1;SDS_P2;PMS_P1;PMS_P2;Temp;Humidity;BMP_temperature;BMP_pressure;BME280_temperature;BME280_humidity;BME280_pressure;Samples;Min_cycle;Max_cycle;Signal;HPM_P1;HPM_P2
2022/05/13 00:01:55;;;;;;;6.07;2.13;;;12.40;89.80;;;;;;5007730;28;20068;-43
2022/05/13 00:04:22;;;;;;;7.35;2.42;;;12.40;89.30;;;;;;5014136;28;20123;-43
2022/05/13 00:06:49;;;;;;;7.03;2.42;;;12.40;89.90;;;;;;5013265;28;20052;-43
2022/05/13 00:09:16;;;;;;;11.45;2.40;;;12.40;90.20;;;;;;5014450;28;20108;-43
2022/05/13 00:11:42;;;;;;;9.73;2.10;;;12.40;90.50;;;;;;5014564;28;20046;-42
2022/05/13 00:14:11;;;;;;;10.23;2.45;;;12.50;90.60;;;;;;5012770;28;20053;-43
2022/05/13 00:16:37;;;;;;;8.82;2.00;;;12.50;91.00;;;;;;5013574;28;20390;-43
2022/05/13 00:19:04;;;;;;;7.75;2.42;;;12.50;90.90;;;;;;5011819;28;20112;-43
2022/05/13 00:21:31;;;;;;;10.88;2.50;;;12.50;90.90;;;;;;5009326;28;20061;-43
2022/05/13 00:23:58;;;;;;;9.63;2.58;;;12.50;91.20;;;;;;5007811;28;20368;-44
2022/05/13 00:26:24;;;;;;;6.90;1.98;;;12.50;91.40;;;;;;5013069;28;20049;-43
2022/05/13 00:28:51;;;;;;;8.30;2.45;;;12.50;91.30;;;;;;5014471;28;20482;-42
2022/05/13 00:31:19;;;;;;;7.45;2.30;;;12.50;91.60;;;;;;5012007;28;20046;-43
2022/05/13 00:33:46;;;;;;;10.88;2.90;;;12.50;91.80;;;;;;5013272;28;20050;-42
2022/05/13 00:36:13;;;;;;;7.55;2.38;;;12.50;92.00;;;;;;5013889;28;20060;-43
2022/05/13 00:38:40;;;;;;;7.50;2.28;;;12.50;92.30;;;;;;5009877;28;20053;-42
2022/05/13 00:41:06;;;;;;;8.82;2.72;;;12.50;92.00;;;;;;5014077;28;20050;-43
2022/05/13 00:43:54;;;;;;;9.75;2.28;;;12.50;92.20;;;;;;5012478;28;20042;-42
2022/05/13 00:46:23;;;;;;;13.20;2.67;;;12.50;92.20;;;;;;5007596;28;20124;-43
2022/05/13 00:48:49;;;;;;;12.02;2.60;;;12.50;92.20;;;;;;5012108;28;20054;-43
2022/05/13 00:51:18;;;;;;;10.02;2.75;;;12.60;92.40;;;;;;4996488;28;20056;-42
2022/05/13 00:53:45;;;;;;;8.95;2.85;;;12.50;92.30;;;;;;5011338;28;20052;-43
2022/05/13 00:56:12;;;;;;;9.48;2.28;;;12.60;92.40;;;;;;4995040;28;20048;-42
2022/05/13 00:58:40;;;;;;;10.23;2.13;;;12.60;92.30;;;;;;4994414;28;20050;-43
2022/05/13 01:01:07;;;;;;;8.27;2.17;;;12.60;92.30;;;;;;5010080;28;20045;-42
2022/05/13 01:03:35;;;;;;;9.05;2.45;;;12.60;92.50;;;;;;5012800;28;20409;-43
2022/05/13 01:06:03;;;;;;;8.65;2.63;;;12.60;92.10;;;;;;5011184;28;20050;-43
2022/05/13 01:08:32;;;;;;;13.02;2.40;;;12.60;92.20;;;;;;5011899;28;20038;-43
2022/05/13 01:10:59;;;;;;;11.40;2.78;;;12.60;92.20;;;;;;5011836;28;20087;-43
2022/05/13 01:13:28;;;;;;;8.25;2.90;;;12.60;92.30;;;;;;5011376;28;20041;-43
2022/05/13 01:15:55;;;;;;;7.97;2.70;;;12.60;92.30;;;;;;5010390;28;20493;-43
2022/05/13 01:18:25;;;;;;;10.90;2.38;;;12.60;92.20;;;;;;5008968;28;20065;-42
2022/05/13 01:20:53;;;;;;;6.43;2.40;;;12.60;92.30;;;;;;5012806;28;20493;-43
2022/05/13 01:23:22;;;;;;;7.78;2.28;;;12.60;92.40;;;;;;5011923;28;20048;-43
2022/05/13 01:25:51;;;;;;;9.48;2.28;;;12.60;92.50;;;;;;5012358;28;20048;-43
2022/05/13 01:28:19;;;;;;;11.10;2.60;;;12.50;92.40;;;;;;5011017;28;20041;-43
2022/05/13 01:30:47;;;;;;;7.80;2.47;;;12.50;92.50;;;;;;4994102;28;20050;-44
2022/05/13 01:33:14;;;;;;;11.23;2.67;;;12.50;92.40;;;;;;5012166;28;20042;-41
2022/05/13 01:35:41;;;;;;;4.90;2.08;;;12.50;92.30;;;;;;5011294;28;20076;-41
2022/05/13 01:38:08;;;;;;;7.93;2.67;;;12.50;92.30;;;;;;5013407;28;20042;-40
2022/05/13 01:40:36;;;;;;;6.28;2.13;;;12.50;92.40;;;;;;5012225;28;20056;-41
2022/05/13 01:43:03;;;;;;;8.05;2.85;;;12.50;92.50;;;;;;5012096;28;20052;-41
2022/05/13 01:45:29;;;;;;;10.50;2.70;;;12.50;92.60;;;;;;5009744;28;20475;-42
2022/05/13 01:47:56;;;;;;;6.60;2.20;;;12.50;92.70;;;;;;5011911;28;20132;-42
2022/05/13 01:50:23;;;;;;;12.05;2.58;;;12.50;92.70;;;;;;5012158;28;20038;-42
2022/05/13 01:52:49;;;;;;;7.15;2.20;;;12.50;92.70;;;;;;5012011;28;20048;-42
2022/05/13 01:55:16;;;;;;;7.97;2.45;;;12.50;92.80;;;;;;5011931;28;20054;-42
2022/05/13 01:57:44;;;;;;;11.02;3.00;;;12.50;93.10;;;;;;5011645;28;20100;-42
2022/05/13 02:00:12;;;;;;;11.93;2.65;;;12.50;93.00;;;;;;5004602;28;20096;-42
2022/05/13 02:05:19;;;;;;;8.38;2.67;;;12.50;93.10;;;;;;5005284;28;20125;-42
2022/05/13 02:07:46;;;;;;;6.18;2.60;;;12.40;93.20;;;;;;5011713;28;20389;-42
2022/05/13 02:10:13;;;;;;;11.27;2.80;;;12.40;93.30;;;;;;5011922;28;20033;-42
2022/05/13 02:12:40;;;;;;;7.82;2.60;;;12.40;93.50;;;;;;5011716;28;20121;-42
2022/05/13 02:15:09;;;;;;;9.23;2.50;;;12.40;93.50;;;;;;4997679;28;20141;-42
2022/05/13 02:17:36;;;;;;;13.40;2.80;;;12.40;93.40;;;;;;5010951;28;20050;-41
2022/05/13 02:20:03;;;;;;;9.35;2.53;;;12.40;93.30;;;;;;5010099;28;20446;-41
2022/05/13 02:22:30;;;;;;;10.63;2.78;;;12.40;93.50;;;;;;5011011;28;20052;-42
2022/05/13 02:24:56;;;;;;;11.23;2.58;;;12.40;93.80;;;;;;5011272;28;20052;-42
2022/05/13 02:27:23;;;;;;;8.10;2.90;;;12.40;93.80;;;;;;5011694;28;20500;-42
2022/05/13 02:29:50;;;;;;;10.95;3.08;;;12.40;93.80;;;;;;5012013;28;20072;-42
2022/05/13 02:32:18;;;;;;;9.88;2.75;;;12.40;94.10;;;;;;5010280;28;20050;-42
2022/05/13 02:34:44;;;;;;;12.07;3.08;;;12.40;94.30;;;;;;5011024;28;20056;-41
2022/05/13 02:37:11;;;;;;;10.15;2.30;;;12.40;94.20;;;;;;5009596;28;20051;-42
2022/05/13 02:39:38;;;;;;;8.50;2.47;;;12.40;94.20;;;;;;5011405;28;20470;-41
2022/05/13 02:42:05;;;;;;;14.07;3.20;;;12.40;94.20;;;;;;5011202;28;20497;-41
2022/05/13 02:44:32;;;;;;;11.32;2.63;;;12.30;94.50;;;;;;5008650;28;20056;-41
2022/05/13 02:46:59;;;;;;;9.07;3.00;;;12.30;94.60;;;;;;5008668;28;20044;-41
2022/05/13 02:49:27;;;;;;;9.30;3.15;;;12.30;94.50;;;;;;5007344;28;20064;-41
2022/05/13 02:51:54;;;;;;;11.63;2.80;;;12.30;94.70;;;;;;5010714;28;20416;-41
2022/05/13 02:54:21;;;;;;;9.88;2.40;;;12.30;94.80;;;;;;5005536;28;20505;-41
2022/05/13 02:56:47;;;;;;;10.27;3.10;;;12.20;95.10;;;;;;5010851;28;20046;-41
2022/05/13 02:59:14;;;;;;;12.15;2.72;;;12.20;95.10;;;;;;5013859;28;20042;-41
2022/05/13 03:01:41;;;;;;;12.82;2.80;;;12.20;95.10;;;;;;5010329;28;20497;-41
2022/05/13 03:04:07;;;;;;;18.42;2.80;;;12.20;95.40;;;;;;5006772;28;20475;-41
2022/05/13 03:06:35;;;;;;;10.15;2.80;;;12.20;95.50;;;;;;5014995;28;20045;-41
2022/05/13 03:09:02;;;;;;;11.05;3.53;;;12.10;95.70;;;;;;5014179;28;20486;-41
2022/05/13 03:11:29;;;;;;;12.77;3.22;;;12.20;95.70;;;;;;5013688;28;20073;-41
2022/05/13 03:13:56;;;;;;;11.27;2.97;;;12.20;95.60;;;;;;5014622;28;20413;-41
2022/05/13 03:16:24;;;;;;;7.88;2.60;;;12.10;95.80;;;;;;5015303;28;20474;-41
2022/05/13 03:18:52;;;;;;;13.30;3.70;;;12.20;95.90;;;;;;5014909;28;20056;-41
2022/05/13 03:21:19;;;;;;;11.43;3.22;;;12.10;96.20;;;;;;5013841;28;20093;-42
2022/05/13 03:23:47;;;;;;;9.07;3.08;;;12.10;96.30;;;;;;5008224;28;20054;-42
2022/05/13 03:26:15;;;;;;;14.10;3.38;;;12.10;96.30;;;;;;5014828;28;20048;-42
2022/05/13 03:28:42;;;;;;;10.30;3.42;;;12.10;96.30;;;;;;5015276;28;20113;-42
2022/05/13 03:31:08;;;;;;;8.98;2.83;;;12.10;96.20;;;;;;5013168;28;20056;-41
2022/05/13 03:33:35;;;;;;;10.27;3.40;;;12.10;96.30;;;;;;5008955;28;20042;-42
2022/05/13 03:36:02;;;;;;;14.68;3.47;;;12.10;96.50;;;;;;5011932;28;20050;-42
2022/05/13 03:38:29;;;;;;;11.50;3.42;;;12.10;96.30;;;;;;5003355;28;20381;-42
2022/05/13 03:41:00;;;;;;;13.25;3.17;;;12.10;96.50;;;;;;5014187;28;20050;-42
2022/05/13 03:43:26;;;;;;;13.25;2.90;;;12.10;96.60;;;;;;5014952;28;20058;-42
2022/05/13 03:45:53;;;;;;;10.50;3.15;;;12.10;96.60;;;;;;5009045;28;20053;-42
2022/05/13 03:48:20;;;;;;;12.23;2.90;;;12.10;96.70;;;;;;5012284;28;20041;-42
2022/05/13 03:50:47;;;;;;;12.90;3.00;;;12.10;96.80;;;;;;5011857;28;20042;-42
2022/05/13 03:53:14;;;;;;;12.98;3.08;;;12.10;97.30;;;;;;5007630;28;20050;-42
2022/05/13 03:55:41;;;;;;;10.73;3.40;;;12.10;96.90;;;;;;5010143;28;20042;-42
2022/05/13 03:58:09;;;;;;;11.75;3.13;;;12.10;97.00;;;;;;5012085;28;20130;-42
2022/05/13 04:00:36;;;;;;;10.52;2.50;;;12.10;97.00;;;;;;5011076;28;20084;-41
2022/05/13 04:03:03;;;;;;;13.82;2.95;;;12.10;97.00;;;;;;5012359;28;20053;-42
2022/05/13 04:10:58;;;;;;;17.00;3.63;;;12.10;97.20;;;;;;5010335;28;20050;-42
2022/05/13 04:16:11;;;;;;;16.00;3.17;;;12.10;97.60;;;;;;5011110;28;20133;-42
2022/05/13 04:18:38;;;;;;;17.88;3.90;;;12.10;97.50;;;;;;5014109;28;20038;-42
2022/05/13 04:21:06;;;;;;;15.52;3.92;;;12.10;97.60;;;;;;5013423;28;20037;-42
2022/05/13 04:23:33;;;;;;;10.25;3.58;;;12.10;97.60;;;;;;5013310;28;20050;-42
2022/05/13 04:26:00;;;;;;;13.68;3.75;;;12.20;97.70;;;;;;5010526;28;20045;-42
2022/05/13 04:28:28;;;;;;;15.63;3.85;;;12.20;97.90;;;;;;5012947;28;20064;-41
2022/05/13 04:30:55;;;;;;;18.23;3.80;;;12.10;98.10;;;;;;5013489;28;20145;-42
2022/05/13 04:33:22;;;;;;;17.23;3.63;;;12.20;98.10;;;;;;5010628;28;20498;-42
2022/05/13 04:35:49;;;;;;;13.95;3.45;;;12.20;98.20;;;;;;5009990;28;20140;-42
2022/05/13 04:38:15;;;;;;;14.20;3.60;;;12.20;98.30;;;;;;5010653;28;20056;-42
2022/05/13 04:40:42;;;;;;;12.52;3.38;;;12.20;98.30;;;;;;5005482;28;20042;-42
2022/05/13 04:43:08;;;;;;;13.40;3.75;;;12.20;98.10;;;;;;5005727;28;20050;-42
2022/05/13 04:45:36;;;;;;;21.20;3.92;;;12.20;98.20;;;;;;5011764;28;20056;-42
2022/05/13 04:48:17;;;;;;;20.23;4.32;;;12.20;98.50;;;;;;5012094;28;20045;-42
2022/05/13 04:50:46;;;;;;;20.23;4.00;;;12.20;98.60;;;;;;5009384;28;20050;-42
2022/05/13 04:53:13;;;;;;;14.65;3.20;;;12.20;98.70;;;;;;5011564;28;20441;-42
2022/05/13 04:55:40;;;;;;;17.77;3.70;;;12.20;98.90;;;;;;5013509;28;20060;-41
2022/05/13 04:58:07;;;;;;;22.38;3.95;;;12.20;99.10;;;;;;5012454;28;20088;-42
2022/05/13 05:00:33;;;;;;;20.45;4.07;;;12.30;99.50;;;;;;5004888;28;20056;-42
2022/05/13 05:03:01;;;;;;;17.08;3.85;;;12.30;99.40;;;;;;5009903;28;20064;-42
2022/05/13 05:05:28;;;;;;;21.73;4.70;;;12.30;99.60;;;;;;5007009;28;20466;-42
2022/05/13 05:07:55;;;;;;;18.08;4.15;;;12.40;99.60;;;;;;5013286;28;20085;-41
2022/05/13 05:10:22;;;;;;;26.75;4.85;;;12.40;99.60;;;;;;5006839;28;20387;-42
2022/05/13 05:12:49;;;;;;;15.15;3.65;;;12.40;99.70;;;;;;5003189;28;20049;-42
2022/05/13 05:15:16;;;;;;;20.80;3.97;;;12.40;99.70;;;;;;5002775;28;20046;-42
2022/05/13 05:17:43;;;;;;;18.63;3.58;;;12.40;99.70;;;;;;5007315;28;20140;-42
2022/05/13 05:20:11;;;;;;;17.48;3.60;;;12.40;99.70;;;;;;5010065;28;20056;-42
2022/05/13 05:22:38;;;;;;;20.17;4.03;;;12.50;99.90;;;;;;5013723;28;20049;-42
2022/05/13 05:25:06;;;;;;;17.33;3.65;;;12.50;99.70;;;;;;5011615;28;20536;-42
2022/05/13 05:27:35;;;;;;;13.77;3.70;;;12.60;99.90;;;;;;5013431;28;20052;-42
2022/05/13 05:30:03;;;;;;;15.98;3.22;;;12.60;99.90;;;;;;5003324;28;20049;-42
2022/05/13 05:32:30;;;;;;;17.13;3.75;;;12.60;99.90;;;;;;5013677;28;20057;-43
2022/05/13 05:34:56;;;;;;;14.68;3.67;;;12.70;99.90;;;;;;5012451;28;20052;-42
2022/05/13 05:37:24;;;;;;;20.63;4.90;;;12.70;99.90;;;;;;5011503;28;20055;-42
2022/05/13 05:39:51;;;;;;;18.05;4.40;;;12.70;99.90;;;;;;5003102;28;20470;-42
2022/05/13 05:42:17;;;;;;;20.65;4.32;;;12.80;99.90;;;;;;5011033;28;20505;-42
2022/05/13 05:44:44;;;;;;;21.80;4.30;;;12.90;99.90;;;;;;4997228;28;20418;-41
2022/05/13 05:47:11;;;;;;;19.63;4.47;;;13.10;99.90;;;;;;4992305;28;20073;-41
2022/05/13 05:49:38;;;;;;;26.83;4.57;;;13.30;99.90;;;;;;4986507;28;20054;-41
2022/05/13 05:52:05;;;;;;;16.52;4.05;;;13.50;99.90;;;;;;4974327;28;20922;-41
2022/05/13 05:57:17;;;;;;;19.83;4.18;;;13.70;99.80;;;;;;4983139;28;20063;-41
2022/05/13 05:59:44;;;;;;;17.60;4.05;;;13.70;99.60;;;;;;4985310;28;20402;-41
2022/05/13 06:02:11;;;;;;;19.88;4.18;;;13.80;99.60;;;;;;4992058;28;20049;-41
2022/05/13 06:04:38;;;;;;;19.42;4.40;;;13.90;99.50;;;;;;4991068;28;20064;-44
2022/05/13 06:07:05;;;;;;;23.90;4.88;;;14.00;99.50;;;;;;4990494;28;20431;-41
2022/05/13 06:09:34;;;;;;;18.55;4.10;;;14.00;99.40;;;;;;4967471;28;20133;-42
2022/05/13 06:12:00;;;;;;;19.77;4.68;;;14.10;99.30;;;;;;4973631;28;20058;-41
2022/05/13 06:14:27;;;;;;;14.57;4.05;;;14.20;99.20;;;;;;4989525;28;20121;-42
2022/05/13 06:16:54;;;;;;;18.20;4.72;;;14.30;99.00;;;;;;4991784;28;20109;-42
2022/05/13 06:19:21;;;;;;;16.30;3.95;;;14.40;98.90;;;;;;4986632;28;20496;-42
2022/05/13 06:21:47;;;;;;;23.08;4.13;;;14.50;98.80;;;;;;4987263;28;20042;-41
2022/05/13 06:24:14;;;;;;;15.30;3.85;;;14.50;98.60;;;;;;4990225;28;20042;-43
2022/05/13 06:26:42;;;;;;;17.80;3.90;;;14.60;98.40;;;;;;4972723;28;20124;-43
2022/05/13 06:29:09;;;;;;;16.50;3.78;;;14.60;98.20;;;;;;4990069;28;20572;-42
2022/05/13 06:31:36;;;;;;;22.42;3.83;;;14.70;98.00;;;;;;4984416;28;20139;-42
2022/05/13 06:34:03;;;;;;;17.90;4.03;;;14.70;97.90;;;;;;4974211;28;20045;-43
2022/05/13 06:36:31;;;;;;;13.50;3.53;;;14.70;97.70;;;;;;4991437;28;20050;-42
2022/05/13 06:38:58;;;;;;;20.58;3.45;;;14.70;97.70;;;;;;4989387;28;20509;-41
2022/05/13 06:41:25;;;;;;;12.68;3.17;;;14.70;97.60;;;;;;4989455;28;20481;-42
2022/05/13 06:43:53;;;;;;;9.20;2.72;;;14.80;97.50;;;;;;4993541;28;20050;-42
2022/05/13 06:46:20;;;;;;;9.80;2.60;;;14.80;97.20;;;;;;4997940;28;20041;-42
2022/05/13 06:48:47;;;;;;;9.07;1.90;;;14.80;96.60;;;;;;5007676;28;20077;-42
2022/05/13 06:51:14;;;;;;;8.75;1.75;;;14.90;96.10;;;;;;5009944;28;20442;-42
2022/05/13 06:53:41;;;;;;;7.43;2.15;;;14.80;95.70;;;;;;5001661;28;20054;-42
2022/05/13 06:56:07;;;;;;;6.28;2.00;;;14.80;95.40;;;;;;5007722;28;20038;-42
2022/05/13 06:58:34;;;;;;;8.15;2.38;;;14.80;95.20;;;;;;5010188;28;20057;-42
2022/05/13 07:01:03;;;;;;;12.32;2.38;;;14.80;95.00;;;;;;5006435;28;20367;-42
2022/05/13 07:03:30;;;;;;;9.70;2.03;;;14.80;95.00;;;;;;5001965;28;20474;-41
2022/05/13 07:05:57;;;;;;;9.30;1.92;;;14.90;94.90;;;;;;5007855;28;20490;-42
2022/05/13 07:08:24;;;;;;;9.40;1.98;;;14.90;94.80;;;;;;5001340;28;20056;-42
2022/05/13 07:10:50;;;;;;;10.32;2.10;;;15.00;94.80;;;;;;5010540;28;20042;-41
2022/05/13 07:13:18;;;;;;;13.13;2.28;;;15.00;94.60;;;;;;5010763;28;20056;-43
2022/05/13 07:15:46;;;;;;;8.23;1.95;;;15.10;94.60;;;;;;5006921;28;20046;-42
2022/05/13 07:18:14;;;;;;;6.53;1.90;;;15.10;94.40;;;;;;5010695;28;20048;-43
2022/05/13 07:20:41;;;;;;;9.30;2.35;;;15.20;94.30;;;;;;5010635;28;20481;-42
2022/05/13 07:23:08;;;;;;;11.90;2.53;;;15.20;94.20;;;;;;5010589;28;20038;-42
2022/05/13 07:25:34;;;;;;;7.80;1.90;;;15.20;93.90;;;;;;5010349;28;20121;-42
2022/05/13 07:28:01;;;;;;;11.15;2.33;;;15.10;93.70;;;;;;5010281;28;20084;-42
2022/05/13 07:30:28;;;;;;;8.93;2.08;;;15.00;93.50;;;;;;4996505;28;20073;-41
2022/05/13 07:32:54;;;;;;;9.50;1.73;;;14.90;93.50;;;;;;5007615;28;20046;-42
2022/05/13 07:35:22;;;;;;;9.88;2.20;;;14.90;93.50;;;;;;5008431;28;20038;-42
2022/05/13 07:37:49;;;;;;;10.18;1.70;;;14.80;93.50;;;;;;5008420;28;20129;-43
2022/05/13 07:43:11;;;;;;;12.68;2.42;;;15.00;93.80;;;;;;4954498;28;20559;-42
2022/05/13 07:45:38;;;;;;;6.03;1.60;;;15.20;93.50;;;;;;4998364;28;20393;-42
2022/05/13 07:48:06;;;;;;;6.15;2.30;;;15.50;93.40;;;;;;5013783;28;20052;-42
2022/05/13 07:50:34;;;;;;;10.15;2.53;;;15.70;92.80;;;;;;5008543;28;20045;-42
2022/05/13 07:53:01;;;;;;;12.18;2.70;;;15.90;92.40;;;;;;5013332;28;20054;-43
2022/05/13 07:55:28;;;;;;;14.48;2.42;;;16.00;92.40;;;;;;5013939;28;20044;-42
2022/05/13 07:57:54;;;;;;;11.43;2.13;;;16.00;92.30;;;;;;5009615;28;20060;-42
2022/05/13 08:00:29;;;;;;;8.10;1.80;;;16.20;92.00;;;;;;5006245;28;20121;-42
2022/05/13 08:02:57;;;;;;;8.07;2.10;;;16.30;91.80;;;;;;5005803;28;20050;-43
2022/05/13 08:05:25;;;;;;;7.28;1.35;;;16.40;91.60;;;;;;5012201;28;20496;-42
2022/05/13 08:08:01;;;;;;;9.13;1.98;;;16.60;91.40;;;;;;5010070;28;20074;-42
2022/05/13 08:10:27;;;;;;;6.35;1.95;;;16.50;91.00;;;;;;5011219;28;20050;-43
2022/05/13 08:12:54;;;;;;;8.25;1.50;;;16.60;91.10;;;;;;5013800;28;20060;-42
2022/05/13 08:15:21;;;;;;;6.85;1.60;;;16.70;90.70;;;;;;5011379;28;20050;-43
2022/05/13 08:17:47;;;;;;;6.80;1.85;;;16.80;90.60;;;;;;5013369;28;20377;-42
2022/05/13 08:20:14;;;;;;;8.30;1.98;;;16.80;90.50;;;;;;5010682;28;20108;-41
2022/05/13 08:22:41;;;;;;;5.80;1.50;;;16.70;90.40;;;;;;5012904;28;20049;-43
2022/05/13 08:25:09;;;;;;;8.30;1.80;;;16.70;90.30;;;;;;5011819;28;20046;-42
2022/05/13 08:27:36;;;;;;;9.30;1.90;;;16.60;90.40;;;;;;5013290;28;20050;-43
2022/05/13 08:30:04;;;;;;;7.93;1.95;;;16.60;90.40;;;;;;5009357;28;20360;-42
2022/05/13 08:32:30;;;;;;;8.63;1.58;;;16.60;90.30;;;;;;5012300;28;20038;-43
2022/05/13 08:34:57;;;;;;;5.10;1.30;;;16.80;90.00;;;;;;5012149;28;20055;-42
2022/05/13 08:37:24;;;;;;;8.55;1.60;;;16.90;90.00;;;;;;5013391;28;20325;-42
2022/05/13 08:39:51;;;;;;;12.88;1.85;;;16.90;90.00;;;;;;5012393;28;20050;-42
2022/05/13 08:42:22;;;;;;;6.40;1.50;;;17.10;89.90;;;;;;5012344;28;20038;-42
2022/05/13 08:44:50;;;;;;;7.90;1.40;;;17.10;88.30;;;;;;5012003;28;20050;-43
2022/05/13 08:47:19;;;;;;;6.35;1.35;;;17.00;87.80;;;;;;5013123;28;20493;-42
2022/05/13 08:50:00;;;;;;;7.93;1.58;;;16.90;87.30;;;;;;5013161;28;20355;-42
2022/05/13 08:55:15;;;;;;;9.57;1.50;;;16.70;87.90;;;;;;5011998;28;20414;-42
2022/05/13 08:57:45;;;;;;;7.18;1.95;;;16.70;88.20;;;;;;5012482;28;20041;-42
2022/05/13 09:00:14;;;;;;;11.90;1.38;;;16.60;87.00;;;;;;5012595;28;20056;-42
2022/05/13 09:02:42;;;;;;;7.20;1.58;;;16.60;87.00;;;;;;5013055;28;20041;-43
2022/05/13 09:05:12;;;;;;;4.25;1.42;;;16.60;86.90;;;;;;5012101;28;20401;-42
2022/05/13 09:07:38;;;;;;;5.03;1.40;;;16.60;86.80;;;;;;5011297;28;20053;-42
2022/05/13 09:10:07;;;;;;;9.27;1.55;;;16.60;87.10;;;;;;5008671;28;20462;-42
2022/05/13 09:12:38;;;;;;;8.48;1.88;;;16.60;87.30;;;;;;5012157;28;20505;-42
2022/05/13 09:15:08;;;;;;;6.28;1.40;;;16.60;87.20;;;;;;5008426;28;20045;-42
2022/05/13 09:17:35;;;;;;;5.03;1.30;;;16.70;87.90;;;;;;5011062;28;20045;-43
2022/05/13 09:20:06;;;;;;;9.30;2.05;;;16.70;87.80;;;;;;5006015;28;20058;-42
2022/05/13 09:22:37;;;;;;;7.82;2.03;;;16.80;88.10;;;;;;5011372;28;20049;-42
2022/05/13 09:25:04;;;;;;;5.93;1.80;;;16.90;87.90;;;;;;5011834;28;20327;-42
2022/05/13 09:27:46;;;;;;;6.90;1.58;;;17.10;87.40;;;;;;5011262;28;20046;-42
2022/05/13 09:30:17;;;;;;;6.82;1.38;;;17.30;86.00;;;;;;5012542;28;20475;-43
2022/05/13 09:32:44;;;;;;;9.55;1.63;;;17.20;85.90;;;;;;5008986;28;20060;-42
2022/05/13 09:35:16;;;;;;;8.27;1.63;;;17.30;86.10;;;;;;5006811;28;20534;-42
2022/05/13 09:37:43;;;;;;;5.90;1.20;;;17.40;85.70;;;;;;5002784;28;20045;-42
2022/05/13 09:40:12;;;;;;;5.45;1.40;;;17.50;85.60;;;;;;5012383;28;20389;-42
2022/05/13 09:42:39;;;;;;;4.35;1.10;;;17.60;85.20;;;;;;5008205;28;20064;-42
2022/05/13 09:45:12;;;;;;;6.95;1.70;;;17.70;84.50;;;;;;5012310;28;20058;-43
2022/05/13 09:47:40;;;;;;;3.72;1.35;;;17.80;83.50;;;;;;5010551;28;20061;-44
2022/05/13 09:50:18;;;;;;;6.95;2.58;;;17.80;83.20;;;;;;5011024;28;20060;-42
2022/05/13 09:52:45;;;;;;;9.25;1.70;;;17.80;83.60;;;;;;5009699;28;20132;-42
2022/05/13 09:55:15;;;;;;;10.27;1.67;;;17.80;83.60;;;;;;5005756;28;20050;-42
2022/05/13 09:57:42;;;;;;;6.38;1.60;;;17.80;83.70;;;;;;5000610;28;20441;-42
2022/05/13 10:00:15;;;;;;;9.32;1.90;;;17.80;83.50;;;;;;5006239;28;20042;-43
2022/05/13 10:02:44;;;;;;;9.65;1.67;;;17.80;83.30;;;;;;5011069;28;20133;-43
2022/05/13 10:05:13;;;;;;;6.50;1.60;;;17.90;83.80;;;;;;5010605;28;20474;-42
2022/05/13 10:07:43;;;;;;;9.70;2.05;;;18.10;83.40;;;;;;5010668;28;20386;-43
2022/05/13 10:15:41;;;;;;;4.28;1.25;;;18.40;81.40;;;;;;5007390;28;20536;-43
2022/05/13 10:18:25;;;;;;;5.82;1.38;;;18.30;80.70;;;;;;5009855;28;20041;-43
2022/05/13 10:20:52;;;;;;;6.50;1.23;;;18.30;80.40;;;;;;5003239;28;20049;-42
2022/05/13 10:23:21;;;;;;;8.90;1.45;;;18.20;80.80;;;;;;5004681;28;20482;-42
2022/05/13 10:25:56;;;;;;;5.00;1.48;;;18.10;81.10;;;;;;5003034;28;20053;-43
2022/05/13 10:28:27;;;;;;;6.72;1.75;;;18.20;81.40;;;;;;5009580;28;20049;-42
2022/05/13 10:30:57;;;;;;;12.13;1.97;;;18.20;82.00;;;;;;5007483;28;20082;-42
2022/05/13 10:33:28;;;;;;;6.28;1.90;;;18.30;82.30;;;;;;5010745;28;20441;-43
2022/05/13 10:35:57;;;;;;;5.78;1.92;;;18.30;81.90;;;;;;5010034;28;20061;-42
2022/05/13 10:38:30;;;;;;;11.80;2.08;;;18.20;82.10;;;;;;5009941;28;20069;-42
2022/05/13 10:40:57;;;;;;;13.38;2.25;;;18.10;82.30;;;;;;5003970;28;20119;-42
2022/05/13 10:43:36;;;;;;;11.23;2.17;;;18.10;83.70;;;;;;5009944;28;20041;-42
2022/05/13 10:46:09;;;;;;;8.57;2.20;;;18.10;83.10;;;;;;5011140;28;20100;-43
2022/05/13 10:48:37;;;;;;;6.07;2.10;;;18.30;83.60;;;;;;5009422;28;20544;-42
2022/05/13 10:51:12;;;;;;;8.57;2.03;;;18.60;83.60;;;;;;5012345;28;20124;-42
2022/05/13 10:53:49;;;;;;;7.72;1.80;;;18.80;82.40;;;;;;5012486;28;20129;-42
2022/05/13 10:56:19;;;;;;;9.30;1.50;;;18.90;81.80;;;;;;5010970;28;20045;-43
2022/05/13 10:58:49;;;;;;;8.23;2.00;;;18.70;82.00;;;;;;5001298;28;20054;-42
2022/05/13 11:01:21;;;;;;;8.32;2.08;;;18.70;81.30;;;;;;5010434;28;20121;-42
2022/05/13 11:03:58;;;;;;;7.75;1.88;;;18.70;81.00;;;;;;5012160;28;20052;-42
2022/05/13 11:06:36;;;;;;;5.97;1.92;;;19.00;81.60;;;;;;5012564;28;20050;-43
2022/05/13 11:09:05;;;;;;;10.73;2.67;;;19.30;80.10;;;;;;5012214;28;20058;-43
2022/05/13 11:11:38;;;;;;;26.88;2.78;;;19.60;79.40;;;;;;5003267;28;20385;-43
2022/05/13 11:14:11;;;;;;;7.88;1.45;;;19.70;77.70;;;;;;5010036;28;20108;-42
2022/05/13 11:16:44;;;;;;;8.50;1.63;;;19.60;77.10;;;;;;5010555;28;20470;-43
2022/05/13 11:19:19;;;;;;;10.60;1.90;;;19.40;76.80;;;;;;5014279;28;20042;-42
2022/05/13 11:21:48;;;;;;;8.68;1.90;;;19.30;76.90;;;;;;5015925;28;20046;-43
2022/05/13 11:27:15;;;;;;;7.50;2.13;;;19.10;77.90;;;;;;4967669;28;20053;-43
2022/05/13 11:29:43;;;;;;;7.05;2.10;;;19.10;78.30;;;;;;5015913;28;20125;-43
2022/05/13 11:32:16;;;;;;;5.93;1.65;;;19.30;77.90;;;;;;5015230;28;20045;-43
2022/05/13 11:34:54;;;;;;;7.90;2.25;;;19.40;76.90;;;;;;5015893;28;20034;-42
2022/05/13 11:37:21;;;;;;;7.20;1.83;;;19.30;76.60;;;;;;5007958;28;20389;-42
2022/05/13 11:40:00;;;;;;;6.90;1.80;;;19.30;77.30;;;;;;5013387;28;20049;-43
2022/05/13 11:45:28;;;;;;;10.93;1.88;;;19.10;77.40;;;;;;5008586;28;20467;-43
2022/05/13 11:47:59;;;;;;;7.40;1.93;;;19.00;78.00;;;;;;5008338;28;20125;-42
2022/05/13 11:50:30;;;;;;;6.90;1.90;;;19.00;78.30;;;;;;5015486;28;20636;-42
2022/05/13 11:53:00;;;;;;;7.40;1.92;;;19.00;77.80;;;;;;5008452;28;20696;-42
2022/05/13 11:55:48;;;;;;;8.98;1.95;;;19.00;78.40;;;;;;5015313;28;20067;-42
2022/05/13 11:58:46;;;;;;;7.50;1.95;;;19.00;77.10;;;;;;5014631;28;20053;-42
2022/05/13 12:01:12;;;;;;;6.35;1.70;;;18.90;77.60;;;;;;5014885;28;20376;-42
2022/05/13 12:03:39;;;;;;;6.97;1.92;;;18.90;78.30;;;;;;5014343;28;20137;-42
2022/05/13 12:06:08;;;;;;;6.50;1.70;;;18.90;78.20;;;;;;5014943;28;20041;-43
2022/05/13 12:08:40;;;;;;;4.65;1.35;;;19.00;78.90;;;;;;5012739;28;20364;-42
2022/05/13 12:11:17;;;;;;;7.80;1.40;;;19.20;77.80;;;;;;5011997;28;20068;-42
2022/05/13 12:13:46;;;;;;;3.30;1.30;;;19.30;76.20;;;;;;5014884;28;20060;-43
2022/05/13 12:16:24;;;;;;;10.20;2.25;;;19.20;75.70;;;;;;5012451;28;20147;-43
2022/05/13 12:18:53;;;;;;;6.65;1.48;;;19.10;75.70;;;;;;5015340;28;20073;-42
2022/05/13 12:21:30;;;;;;;6.97;1.48;;;19.20;76.30;;;;;;5010323;28;20041;-42
2022/05/13 12:23:57;;;;;;;6.07;1.70;;;19.30;75.60;;;;;;5011252;28;20496;-43
2022/05/13 12:26:25;;;;;;;8.00;1.90;;;19.40;75.80;;;;;;5007270;28;20042;-42
2022/05/13 12:29:11;;;;;;;9.48;1.60;;;19.40;75.50;;;;;;5010314;28;20052;-42
2022/05/13 12:31:47;;;;;;;11.25;1.48;;;19.40;75.80;;;;;;5008307;28;20046;-42
2022/05/13 12:39:56;;;;;;;8.27;1.75;;;19.70;74.60;;;;;;5014529;28;20370;-42
2022/05/13 12:42:35;;;;;;;;;;;19.80;74.10;;;;;;5014555;28;20050;-42
2022/05/13 12:45:02;;;;;;;12.77;1.88;;;19.70;73.00;;;;;;5013617;28;19924;-41
2022/05/13 12:47:29;;;;;;;9.93;1.48;;;19.70;73.00;;;;;;5013056;28;20120;-42
2022/05/13 12:50:01;;;;;;;5.13;1.40;;;19.70;72.30;;;;;;5014250;28;20042;-42
2022/05/13 12:52:38;;;;;;;7.65;1.35;;;19.70;71.40;;;;;;5011007;28;20128;-41
2022/05/13 12:55:07;;;;;;;4.97;1.45;;;19.70;71.40;;;;;;5013148;28;20226;-41
2022/05/13 12:57:35;;;;;;;14.38;2.33;;;19.70;70.70;;;;;;5011232;28;20041;-42
2022/05/13 13:00:03;;;;;;;9.40;1.65;;;19.60;70.40;;;;;;5013705;28;20056;-41
2022/05/13 13:02:31;;;;;;;14.00;1.70;;;19.70;70.30;;;;;;5013882;28;20538;-42
2022/05/13 13:05:00;;;;;;;5.53;1.73;;;19.70;70.00;;;;;;5013097;28;20060;-42
2022/05/13 13:07:28;;;;;;;7.07;1.55;;;19.70;69.90;;;;;;5012540;28;20049;-42
2022/05/13 13:09:56;;;;;;;8.82;2.05;;;19.70;70.30;;;;;;5013916;28;20056;-42
2022/05/13 13:12:26;;;;;;;9.02;1.70;;;19.70;70.20;;;;;;5011221;28;20042;-41
2022/05/13 13:14:56;;;;;;;9.02;1.80;;;19.60;69.90;;;;;;5012832;28;20044;-42
2022/05/13 13:17:32;;;;;;;18.20;2.40;;;19.70;70.60;;;;;;5013708;28;20073;-42
2022/05/13 13:19:59;;;;;;;16.08;2.00;;;19.80;70.30;;;;;;5009567;28;20470;-42
2022/05/13 13:22:27;;;;;;;7.70;1.83;;;19.80;69.70;;;;;;5010256;28;20062;-42
2022/05/13 13:24:55;;;;;;;14.27;2.10;;;19.80;69.40;;;;;;5013413;28;20494;-41
2022/05/13 13:27:24;;;;;;;13.43;2.05;;;19.80;69.20;;;;;;5013755;28;20046;-43